createdAt,value
2022-09-10T00:02:02.968Z,6.01
2022-09-10T00:04:30.581Z,5.93
2022-09-10T00:06:57.615Z,5.89
2022-09-10T00:09:24.790Z,5.88
2022-09-10T00:11:51.931Z,5.86
2022-09-10T00:14:22.727Z,5.84
2022-09-10T00:16:50.316Z,5.81
2022-09-10T00:19:18.481Z,5.79
2022-09-10T00:21:45.586Z,5.64
2022-09-10T00:24:12.929Z,5.74
2022-09-10T00:26:40.465Z,5.70
2022-09-10T00:29:12.715Z,5.68
2022-09-10T00:31:40.091Z,5.66
2022-09-10T00:34:07.455Z,5.60
2022-09-10T00:36:39.796Z,5.58
2022-09-10T00:39:18.532Z,5.45
2022-09-10T00:41:48.070Z,5.59
2022-09-10T00:44:37.482Z,5.62
2022-09-10T00:47:12.885Z,5.62
2022-09-10T00:49:44.300Z,5.64
2022-09-10T00:52:12.450Z,5.65
2022-09-10T00:54:42.559Z,5.66
2022-09-10T00:57:17.469Z,5.65
2022-09-10T00:59:50.380Z,5.64
2022-09-10T01:02:17.418Z,5.57
2022-09-10T01:04:45.744Z,5.57
2022-09-10T01:07:14.614Z,5.53
2022-09-10T01:09:43.193Z,5.51
2022-09-10T01:12:36.558Z,5.48
2022-09-10T01:15:29.148Z,5.45
2022-09-10T01:18:03.590Z,5.45
2022-09-10T01:20:53.816Z,5.45
2022-09-10T01:23:58.267Z,5.46
2022-09-10T01:26:34.568Z,5.45
2022-09-10T01:29:12.817Z,5.46
2022-09-10T01:31:52.110Z,5.43
2022-09-10T01:34:46.356Z,5.40
2022-09-10T01:37:29.180Z,5.40
2022-09-10T01:39:59.288Z,5.28
2022-09-10T01:42:28.532Z,5.36
2022-09-10T01:44:58.035Z,5.37
2022-09-10T01:48:09.741Z,5.38
2022-09-10T01:51:26.093Z,5.36
2022-09-10T01:54:01.937Z,5.33
2022-09-10T01:56:43.885Z,5.31
2022-09-10T01:59:23.525Z,5.22
2022-09-10T02:01:59.890Z,5.24
2022-09-10T02:04:30.006Z,5.16
2022-09-10T02:06:57.615Z,5.16
2022-09-10T02:09:24.922Z,5.16
2022-09-10T02:11:54.517Z,5.12
2022-09-10T02:14:34.235Z,5.09
2022-09-10T02:17:12.141Z,5.07
2022-09-10T02:19:39.208Z,5.00
2022-09-10T02:22:06.294Z,5.02
2022-09-10T02:24:33.342Z,4.99
2022-09-10T02:27:00.824Z,4.98
2022-09-10T02:29:28.909Z,4.96
2022-09-10T02:31:55.931Z,4.92
2022-09-10T02:34:23.254Z,4.94
2022-09-10T02:36:50.356Z,4.90
2022-09-10T02:39:17.381Z,4.91
2022-09-10T02:41:45.640Z,4.90
2022-09-10T02:44:12.828Z,4.87
2022-09-10T02:46:40.252Z,4.88
2022-09-10T02:49:09.267Z,4.86
2022-09-10T02:51:38.886Z,4.84
2022-09-10T02:54:07.088Z,4.85
2022-09-10T02:56:34.731Z,4.84
2022-09-10T02:59:01.711Z,4.87
2022-09-10T03:01:29.651Z,4.79
2022-09-10T03:04:01.225Z,4.82
2022-09-10T03:06:30.173Z,4.85
2022-09-10T03:08:58.530Z,4.80
2022-09-10T03:11:27.714Z,4.85
2022-09-10T03:13:56.241Z,4.89
2022-09-10T03:16:24.496Z,4.89
2022-09-10T03:18:52.480Z,4.95
2022-09-10T03:21:22.466Z,4.96
2022-09-10T03:23:52.909Z,4.98
2022-09-10T03:26:27.706Z,5.03
2022-09-10T03:28:55.070Z,5.09
2022-09-10T03:31:25.032Z,5.17
2022-09-10T03:33:52.082Z,5.22
2022-09-10T03:36:22.731Z,5.27
2022-09-10T03:38:50.351Z,5.31
2022-09-10T03:41:17.886Z,5.37
2022-09-10T03:43:45.994Z,5.43
2022-09-10T03:46:13.278Z,5.50
2022-09-10T03:48:45.776Z,5.55
2022-09-10T03:51:13.182Z,5.64
2022-09-10T03:53:41.014Z,5.66
2022-09-10T03:56:11.295Z,5.79
2022-09-10T03:58:39.650Z,5.82
2022-09-10T04:01:08.958Z,5.88
2022-09-10T04:03:38.890Z,5.96
2022-09-10T04:06:10.495Z,5.98
2022-09-10T04:08:38.139Z,6.14
2022-09-10T04:11:08.110Z,6.20
2022-09-10T04:13:35.154Z,6.24
2022-09-10T04:16:03.028Z,6.31
2022-09-10T04:18:34.582Z,6.40
2022-09-10T04:21:03.367Z,6.50
2022-09-10T04:23:31.083Z,6.57
2022-09-10T04:25:58.059Z,6.62
2022-09-10T04:28:28.672Z,6.69
2022-09-10T04:30:56.936Z,6.74
2022-09-10T04:33:25.595Z,6.78
2022-09-10T04:36:00.596Z,6.88
2022-09-10T04:38:32.372Z,6.94
2022-09-10T04:41:03.411Z,6.90
2022-09-10T04:43:30.458Z,7.14
2022-09-10T04:45:59.885Z,7.09
2022-09-10T04:48:27.265Z,7.25
2022-09-10T04:51:15.256Z,7.39
2022-09-10T04:53:45.959Z,7.51
2022-09-10T04:56:13.850Z,7.58
2022-09-10T04:58:41.900Z,7.72
2022-09-10T05:01:09.518Z,7.77
2022-09-10T05:03:37.313Z,7.91
2022-09-10T05:06:09.378Z,7.98
2022-09-10T05:08:36.937Z,8.05
2022-09-10T05:11:05.497Z,8.18
2022-09-10T05:13:33.554Z,8.27
2022-09-10T05:16:01.760Z,8.26
2022-09-10T05:18:31.436Z,8.47
2022-09-10T05:20:58.619Z,8.47
2022-09-10T05:23:27.371Z,8.60
2022-09-10T05:25:59.462Z,8.69
2022-09-10T05:28:27.367Z,8.73
2022-09-10T05:30:55.572Z,8.84
2022-09-10T05:33:24.681Z,8.92
2022-09-10T05:35:51.923Z,8.97
2022-09-10T05:38:20.707Z,8.93
2022-09-10T05:40:48.738Z,9.12
2022-09-10T05:43:15.691Z,9.20
2022-09-10T05:45:44.592Z,9.29
2022-09-10T05:48:11.611Z,9.34
2022-09-10T05:50:41.886Z,9.44
2022-09-10T05:53:12.493Z,9.49
2022-09-10T05:55:39.727Z,9.53
2022-09-10T05:58:07.519Z,9.59
2022-09-10T06:00:37.046Z,9.71
2022-09-10T06:03:05.553Z,9.80
2022-09-10T06:05:41.668Z,9.84
2022-09-10T06:08:10.033Z,9.88
2022-09-10T06:10:43.335Z,9.98
2022-09-10T06:13:11.632Z,10.04
2022-09-10T06:15:42.222Z,10.13
2022-09-10T06:18:09.836Z,10.18
2022-09-10T06:20:37.759Z,10.20
2022-09-10T06:23:06.970Z,10.23
2022-09-10T06:25:34.050Z,10.35
2022-09-10T06:28:02.294Z,10.37
2022-09-10T06:30:29.647Z,10.40
2022-09-10T06:32:57.338Z,10.38
2022-09-10T06:35:25.567Z,10.45
2022-09-10T06:37:54.726Z,10.49
2022-09-10T06:40:22.170Z,10.60
2022-09-10T06:42:49.503Z,10.64
2022-09-10T06:45:19.566Z,10.73
2022-09-10T06:48:37.208Z,10.78
2022-09-10T06:50:53.485Z,10.80
2022-09-10T06:53:24.489Z,10.84
2022-09-10T06:56:20.110Z,10.88
2022-09-10T06:59:01.504Z,10.76
2022-09-10T07:01:43.640Z,10.81
2022-09-10T07:04:11.116Z,10.92
2022-09-10T07:06:42.859Z,10.98
2022-09-10T07:09:15.385Z,11.07
2022-09-10T07:12:22.414Z,11.25
2022-09-10T07:14:50.011Z,11.20
2022-09-10T07:17:23.541Z,11.29
2022-09-10T07:20:01.513Z,11.32
2022-09-10T07:22:42.642Z,11.47
2022-09-10T07:25:17.411Z,11.47
2022-09-10T07:28:01.466Z,11.65
2022-09-10T07:30:37.200Z,11.59
2022-09-10T07:33:08.977Z,11.58
2022-09-10T07:35:46.601Z,11.79
2022-09-10T07:38:19.537Z,11.86
2022-09-10T07:40:52.938Z,11.87
2022-09-10T07:43:53.285Z,12.17
2022-09-10T07:46:41.143Z,12.18
2022-09-10T07:49:11.657Z,12.16
2022-09-10T07:51:40.729Z,12.17
2022-09-10T07:54:08.135Z,12.26
2022-09-10T07:56:44.372Z,12.40
2022-09-10T07:59:14.209Z,12.44
2022-09-10T08:01:53.283Z,12.41
2022-09-10T08:04:21.269Z,12.44
2022-09-10T08:06:48.748Z,12.53
2022-09-10T08:09:21.903Z,12.59
2022-09-10T08:11:55.200Z,12.60
2022-09-10T08:14:24.393Z,12.55
2022-09-10T08:16:57.355Z,12.56
2022-09-10T08:19:26.257Z,12.55
2022-09-10T08:21:56.077Z,12.71
2022-09-10T08:24:29.058Z,12.63
2022-09-10T08:26:56.616Z,12.75
2022-09-10T08:29:32.593Z,12.73
2022-09-10T08:32:19.496Z,12.70
2022-09-10T08:34:46.642Z,12.77
2022-09-10T08:37:15.848Z,12.99
2022-09-10T08:39:43.954Z,12.93
2022-09-10T08:42:29.180Z,13.22
2022-09-10T08:45:10.164Z,13.26
2022-09-10T08:47:58.783Z,13.34
2022-09-10T08:50:51.731Z,13.22
2022-09-10T08:53:31.478Z,13.33
2022-09-10T08:56:11.559Z,13.36
2022-09-10T08:58:47.896Z,13.45
2022-09-10T09:01:31.734Z,13.28
2022-09-10T09:04:08.214Z,13.28
2022-09-10T09:06:48.734Z,13.46
2022-09-10T09:09:16.810Z,13.53
2022-09-10T09:12:27.400Z,13.74
2022-09-10T09:15:20.595Z,13.87
2022-09-10T09:18:17.509Z,13.99
2022-09-10T09:20:55.247Z,14.06
2022-09-10T09:23:25.233Z,14.14
2022-09-10T09:26:05.427Z,14.23
2022-09-10T09:28:39.580Z,14.14
2022-09-10T09:31:43.075Z,14.20
2022-09-10T09:34:28.506Z,14.20
2022-09-10T09:36:58.755Z,14.11
2022-09-10T09:39:45.994Z,14.21
2022-09-10T09:42:47.167Z,14.26
2022-09-10T09:45:49.595Z,14.24
2022-09-10T09:48:22.740Z,14.25
2022-09-10T09:50:57.336Z,14.18
2022-09-10T09:53:34.266Z,14.19
2022-09-10T09:56:23.148Z,14.39
2022-09-10T09:58:52.574Z,14.22
2022-09-10T10:01:23.095Z,14.33
2022-09-10T10:03:59.631Z,14.30
2022-09-10T10:06:47.179Z,14.50
2022-09-10T10:09:46.032Z,14.67
2022-09-10T10:16:37.867Z,14.78
2022-09-10T10:19:30.010Z,15.07
2022-09-10T10:21:59.969Z,14.96
2022-09-10T10:24:35.404Z,15.00
2022-09-10T10:27:02.689Z,14.85
2022-09-10T10:29:30.482Z,14.82
2022-09-10T10:32:05.688Z,14.89
2022-09-10T10:35:08.216Z,15.02
2022-09-10T10:37:41.133Z,15.13
2022-09-10T10:40:37.555Z,15.24
2022-09-10T10:43:23.418Z,15.32
2022-09-10T10:46:13.121Z,15.32
2022-09-10T10:48:45.282Z,15.41
2022-09-10T10:51:32.203Z,15.46
2022-09-10T10:54:34.892Z,15.63
2022-09-10T10:57:22.003Z,15.71
2022-09-10T11:00:17.103Z,15.84
2022-09-10T11:03:25.840Z,15.95
2022-09-10T11:06:08.325Z,15.99
2022-09-10T11:08:50.965Z,15.84
2022-09-10T11:11:23.435Z,15.89
2022-09-10T11:14:38.309Z,15.88
2022-09-10T11:17:14.297Z,15.84
2022-09-10T11:20:27.145Z,15.75
2022-09-10T11:23:07.583Z,15.69
2022-09-10T11:25:46.820Z,15.64
2022-09-10T11:28:19.795Z,15.59
2022-09-10T11:30:53.564Z,15.58
2022-09-10T11:33:27.747Z,15.69
2022-09-10T11:36:06.314Z,15.70
2022-09-10T11:38:48.409Z,15.71
2022-09-10T11:41:26.828Z,15.71
2022-09-10T11:44:13.096Z,15.80
2022-09-10T11:46:50.484Z,15.83
2022-09-10T11:49:28.377Z,15.85
2022-09-10T11:51:57.346Z,15.88
2022-09-10T11:54:34.600Z,15.75
2022-09-10T11:57:18.730Z,15.84
2022-09-10T12:00:04.461Z,15.96
2022-09-10T12:03:13.949Z,16.14
2022-09-10T12:05:56.123Z,16.42
2022-09-10T12:08:38.519Z,16.84
2022-09-10T12:11:30.104Z,17.41
2022-09-10T12:13:59.154Z,17.86
2022-09-10T12:16:46.862Z,18.72
2022-09-10T12:19:37.951Z,19.60
2022-09-10T12:22:09.396Z,20.46
2022-09-10T12:24:39.109Z,21.28
2022-09-10T12:27:07.387Z,22.03
2022-09-10T12:29:38.348Z,22.68
2022-09-10T12:32:08.410Z,23.18
2022-09-10T12:34:37.029Z,23.65
2022-09-10T12:37:20.015Z,24.17
2022-09-10T12:39:47.349Z,24.49
2022-09-10T12:42:27.278Z,24.89
2022-09-10T12:44:56.356Z,25.13
2022-09-10T12:47:30.058Z,25.51
2022-09-10T12:50:05.168Z,25.78
2022-09-10T12:52:35.630Z,26.14
2022-09-10T12:55:21.758Z,26.71
2022-09-10T12:57:59.901Z,27.46
2022-09-10T13:00:38.389Z,28.12
2022-09-10T13:03:05.979Z,28.49
2022-09-10T13:05:52.967Z,28.89
2022-09-10T13:08:38.291Z,28.97
2022-09-10T13:11:35.850Z,28.99
2022-09-10T13:14:06.462Z,28.94
2022-09-10T13:16:33.412Z,29.12
2022-09-10T13:19:32.582Z,29.41
2022-09-10T13:21:59.833Z,29.31
2022-09-10T13:24:36.348Z,29.27
2022-09-10T13:27:36.151Z,29.23
2022-09-10T13:30:12.348Z,29.39
2022-09-10T13:32:44.467Z,29.49
2022-09-10T13:35:17.530Z,29.98
2022-09-10T13:37:55.396Z,30.25
2022-09-10T13:40:34.813Z,30.25
2022-09-10T13:43:31.439Z,30.19
2022-09-10T13:46:20.264Z,30.08
2022-09-10T13:48:56.767Z,30.00
2022-09-10T13:51:46.345Z,29.97
2022-09-10T13:54:34.735Z,29.82
2022-09-10T13:57:35.804Z,29.56
2022-09-10T14:00:03.790Z,29.22
2022-09-10T14:02:48.223Z,29.07
2022-09-10T14:05:31.858Z,29.29
2022-09-10T14:08:15.522Z,29.47
2022-09-10T14:10:53.439Z,29.78
2022-09-10T14:13:28.482Z,29.86
2022-09-10T14:16:01.428Z,29.77
2022-09-10T14:18:38.294Z,29.88
2022-09-10T14:21:06.234Z,29.64
2022-09-10T14:23:34.355Z,29.60
2022-09-10T14:26:15.843Z,29.50
2022-09-10T14:29:30.808Z,29.44
2022-09-10T14:31:58.125Z,29.22
2022-09-10T14:34:26.009Z,29.13
2022-09-10T14:37:03.417Z,29.20
2022-09-10T14:39:31.171Z,29.06
2022-09-10T14:42:40.026Z,29.27
2022-09-10T14:45:40.758Z,29.34
2022-09-10T14:48:29.472Z,29.31
2022-09-10T14:51:16.011Z,29.23
2022-09-10T14:53:45.256Z,28.87
2022-09-10T14:56:37.849Z,28.77
2022-09-10T14:59:21.433Z,28.55
2022-09-10T15:01:49.333Z,28.23
2022-09-10T15:04:21.801Z,28.17
2022-09-10T15:07:11.076Z,28.06
2022-09-10T15:09:38.334Z,27.72
2022-09-10T15:12:15.651Z,27.53
2022-09-10T15:14:42.797Z,27.24
2022-09-10T15:17:14.199Z,27.03
2022-09-10T15:19:42.857Z,-142.79
2022-09-10T15:22:30.631Z,-142.79
2022-09-10T15:25:10.507Z,-142.79
2022-09-10T15:27:41.938Z,-142.79
2022-09-10T15:30:09.473Z,-142.79
2022-09-10T15:32:36.578Z,-142.79
2022-09-10T15:35:05.636Z,-142.79
2022-09-10T15:37:33.008Z,-142.79
2022-09-10T15:40:00.269Z,27.03
2022-09-10T15:42:27.245Z,22.55
2022-09-10T15:44:54.238Z,22.55
2022-09-10T15:47:21.366Z,22.55
2022-09-10T15:49:52.631Z,20.94
2022-09-10T15:52:20.037Z,20.07
2022-09-10T15:54:47.087Z,19.28
2022-09-10T15:57:13.998Z,18.62
2022-09-10T15:59:40.960Z,18.04
2022-09-10T16:02:13.246Z,17.55
2022-09-10T16:04:42.947Z,17.10
2022-09-10T16:07:11.121Z,16.71
2022-09-10T16:09:38.264Z,-142.79
2022-09-10T16:12:05.578Z,16.09
2022-09-10T16:14:32.783Z,-142.79
2022-09-10T16:17:00.972Z,-142.79
2022-09-10T16:19:28.163Z,16.09
2022-09-10T16:21:58.493Z,15.34
2022-09-10T16:24:25.702Z,14.91
2022-09-10T16:26:53.309Z,14.69
2022-09-10T16:29:20.459Z,14.34
2022-09-10T16:31:48.281Z,-142.79
2022-09-10T16:34:20.422Z,-142.79
2022-09-10T16:36:51.674Z,-142.79
2022-09-10T16:39:20.151Z,-142.79
2022-09-10T16:41:49.131Z,-142.79
2022-09-10T16:44:17.871Z,-142.79
2022-09-10T16:46:49.957Z,-142.79
2022-09-10T16:49:19.809Z,-142.79
2022-09-10T16:51:51.563Z,13.24
2022-09-10T16:54:21.026Z,13.16
2022-09-10T16:56:50.482Z,13.05
2022-09-10T16:59:23.115Z,12.92
2022-09-10T17:01:52.245Z,12.81
2022-09-10T17:04:32.546Z,12.79
2022-09-10T17:07:08.811Z,12.53
2022-09-10T17:09:36.198Z,12.49
2022-09-10T17:12:08.796Z,12.35
2022-09-10T17:14:36.151Z,12.36
2022-09-10T17:17:03.833Z,12.44
2022-09-10T17:19:34.136Z,12.22
2022-09-10T17:22:05.680Z,12.09
2022-09-10T17:24:32.903Z,12.10
2022-09-10T17:27:00.860Z,12.05
2022-09-10T17:29:28.114Z,12.06
2022-09-10T17:31:58.730Z,11.83
2022-09-10T17:34:27.332Z,11.87
2022-09-10T17:36:54.583Z,11.76
2022-09-10T17:39:22.056Z,11.79
2022-09-10T17:41:49.235Z,11.74
2022-09-10T17:44:16.797Z,11.67
2022-09-10T17:46:45.168Z,11.46
2022-09-10T17:49:16.371Z,11.52
2022-09-10T17:51:44.005Z,11.51
2022-09-10T17:54:12.021Z,11.43
2022-09-10T17:56:43.570Z,11.29
2022-09-10T17:59:25.448Z,11.32
2022-09-10T18:01:53.050Z,11.16
2022-09-10T18:04:23.779Z,11.17
2022-09-10T18:06:52.517Z,11.23
2022-09-10T18:09:23.695Z,11.19
2022-09-10T18:11:51.028Z,11.17
2022-09-10T18:14:19.619Z,11.16
2022-09-10T18:16:50.085Z,11.11
2022-09-10T18:19:18.463Z,11.07
2022-09-10T18:21:49.565Z,10.98
2022-09-10T18:24:24.691Z,10.99
2022-09-10T18:26:54.091Z,10.91
2022-09-10T18:29:22.836Z,10.91
2022-09-10T18:31:57.312Z,10.83
2022-09-10T18:34:28.229Z,10.83
2022-09-10T18:37:00.515Z,10.71
2022-09-10T18:39:30.632Z,10.72
2022-09-10T18:42:04.929Z,10.51
2022-09-10T18:44:37.125Z,10.56
2022-09-10T18:47:17.711Z,10.70
2022-09-10T18:49:53.613Z,10.60
2022-09-10T18:52:21.138Z,10.47
2022-09-10T18:54:48.506Z,10.51
2022-09-10T18:57:15.477Z,10.49
2022-09-10T18:59:45.419Z,10.37
2022-09-10T19:02:15.625Z,10.45
2022-09-10T19:05:07.360Z,10.41
2022-09-10T19:07:30.397Z,10.37
2022-09-10T19:09:57.659Z,10.31
2022-09-10T19:12:24.826Z,10.23
2022-09-10T19:14:51.767Z,10.31
2022-09-10T19:17:18.992Z,10.36
2022-09-10T19:19:47.977Z,10.19
2022-09-10T19:22:16.701Z,10.30
2022-09-10T19:24:54.436Z,10.22
2022-09-10T19:27:22.468Z,10.21
2022-09-10T19:29:50.492Z,10.16
2022-09-10T19:32:22.276Z,10.11
2022-09-10T19:34:50.702Z,10.08
2022-09-10T19:37:20.894Z,10.06
2022-09-10T19:39:48.226Z,9.98
2022-09-10T19:42:22.224Z,10.00
2022-09-10T19:44:49.446Z,9.90
2022-09-10T19:47:16.367Z,9.91
2022-09-10T19:49:44.259Z,9.93
2022-09-10T19:52:11.304Z,9.90
2022-09-10T19:54:38.943Z,9.85
2022-09-10T19:57:06.025Z,9.82
2022-09-10T19:59:35.773Z,9.76
2022-09-10T20:02:02.863Z,9.71
2022-09-10T20:04:35.839Z,9.73
2022-09-10T20:35:17.665Z,9.35
2022-09-10T20:53:42.949Z,9.21
2022-09-10T21:05:57.749Z,9.13
2022-09-10T22:57:21.430Z,8.53
2022-09-10T23:00:23.696Z,8.26
2022-09-10T23:04:03.402Z,8.27
2022-09-10T23:15:15.226Z,8.25
2022-09-10T23:24:17.797Z,8.21
2022-09-10T23:45:35.413Z,8.20
